sensor_id;sensor_type;location;lat;lon;timestamp;pressure;altitude;pressure_sealevel;temperature;humidity
3654;BME280;70277;54.302;10.064;2024-01-07T00:02:09;101974.75;;;2.87;68.11
3654;BME280;70277;54.302;10.064;2024-01-07T00:04:35;101970.19;;;2.39;69.22
3654;BME280;70277;54.302;10.064;2024-01-07T00:07:04;101981.88;;;2.30;70.04
3654;BME280;70277;54.302;10.064;2024-01-07T00:09:30;101976.97;;;2.09;70.44
3654;BME280;70277;54.302;10.064;2024-01-07T00:11:57;101988.31;;;2.02;70.57
3654;BME280;70277;54.302;10.064;2024-01-07T00:14:23;101987.47;;;2.02;70.94
3654;BME280;70277;54.302;10.064;2024-01-07T00:16:50;101996.81;;;2.06;70.26
3654;BME280;70277;54.302;10.064;2024-01-07T00:19:17;101989.06;;;2.45;70.17
3654;BME280;70277;54.302;10.064;2024-01-07T00:21:43;101985.50;;;2.12;70.61
3654;BME280;70277;54.302;10.064;2024-01-07T00:24:10;101996.69;;;2.16;70.12
3654;BME280;70277;54.302;10.064;2024-01-07T00:26:36;101990.97;;;2.02;70.05
3654;BME280;70277;54.302;10.064;2024-01-07T00:29:03;102008.75;;;2.36;69.49
3654;BME280;70277;54.302;10.064;2024-01-07T00:31:30;102006.28;;;2.51;69.15
3654;BME280;70277;54.302;10.064;2024-01-07T00:33:57;102007.94;;;2.60;68.66
3654;BME280;70277;54.302;10.064;2024-01-07T00:36:24;102008.75;;;2.36;68.52
3654;BME280;70277;54.302;10.064;2024-01-07T00:38:50;102020.19;;;2.04;69.42
3654;BME280;70277;54.302;10.064;2024-01-07T00:41:17;102010.69;;;2.01;69.06
3654;BME280;70277;54.302;10.064;2024-01-07T00:43:43;102019.25;;;2.30;68.92
3654;BME280;70277;54.302;10.064;2024-01-07T00:46:10;102023.50;;;2.65;68.16
3654;BME280;70277;54.302;10.064;2024-01-07T00:48:37;102029.94;;;2.30;68.67
3654;BME280;70277;54.302;10.064;2024-01-07T00:51:03;102020.38;;;2.19;69.45
3654;BME280;70277;54.302;10.064;2024-01-07T00:53:30;102022.22;;;2.10;69.56
3654;BME280;70277;54.302;10.064;2024-01-07T00:55:57;102036.09;;;2.14;69.42
3654;BME280;70277;54.302;10.064;2024-01-07T00:58:23;102026.53;;;2.03;69.58
3654;BME280;70277;54.302;10.064;2024-01-07T01:00:50;102032.56;;;1.71;70.21
3654;BME280;70277;54.302;10.064;2024-01-07T01:03:17;102025.00;;;2.00;70.29
3654;BME280;70277;54.302;10.064;2024-01-07T01:05:44;102029.38;;;2.10;69.32
3654;BME280;70277;54.302;10.064;2024-01-07T01:08:10;102038.59;;;2.15;69.37
3654;BME280;70277;54.302;10.064;2024-01-07T01:10:37;102040.50;;;2.47;68.45
3654;BME280;70277;54.302;10.064;2024-01-07T01:13:03;102042.44;;;2.21;68.42
3654;BME280;70277;54.302;10.064;2024-01-07T01:15:30;102040.28;;;2.16;68.23
3654;BME280;70277;54.302;10.064;2024-01-07T01:17:57;102040.03;;;2.52;67.73
3654;BME280;70277;54.302;10.064;2024-01-07T01:20:25;102036.84;;;2.57;67.38
3654;BME280;70277;54.302;10.064;2024-01-07T01:22:51;102036.34;;;2.37;67.74
3654;BME280;70277;54.302;10.064;2024-01-07T01:25:18;102047.31;;;2.34;67.76
3654;BME280;70277;54.302;10.064;2024-01-07T01:27:44;102050.53;;;2.37;67.84
3654;BME280;70277;54.302;10.064;2024-01-07T01:30:11;102063.44;;;2.08;68.57
3654;BME280;70277;54.302;10.064;2024-01-07T01:32:39;102061.47;;;2.18;68.70
3654;BME280;70277;54.302;10.064;2024-01-07T01:35:06;102065.63;;;2.12;68.65
3654;BME280;70277;54.302;10.064;2024-01-07T01:37:33;102074.00;;;2.17;68.90
3654;BME280;70277;54.302;10.064;2024-01-07T01:39:59;102073.22;;;2.41;68.21
3654;BME280;70277;54.302;10.064;2024-01-07T01:42:26;102071.97;;;2.11;68.10
3654;BME280;70277;54.302;10.064;2024-01-07T01:44:53;102070.34;;;1.92;68.67
3654;BME280;70277;54.302;10.064;2024-01-07T01:47:23;102081.22;;;2.25;67.88
3654;BME280;70277;54.302;10.064;2024-01-07T01:49:50;102087.31;;;2.52;67.64
3654;BME280;70277;54.302;10.064;2024-01-07T01:52:17;102079.38;;;2.25;67.99
3654;BME280;70277;54.302;10.064;2024-01-07T01:54:44;102088.91;;;2.36;68.40
3654;BME280;70277;54.302;10.064;2024-01-07T01:57:15;102086.00;;;2.21;67.84
3654;BME280;70277;54.302;10.064;2024-01-07T01:59:43;102091.91;;;2.33;69.20
3654;BME280;70277;54.302;10.064;2024-01-07T02:02:09;102096.19;;;2.18;69.10
3654;BME280;70277;54.302;10.064;2024-01-07T02:04:36;102090.84;;;2.18;69.06
3654;BME280;70277;54.302;10.064;2024-01-07T02:07:03;102083.69;;;1.84;69.39
3654;BME280;70277;54.302;10.064;2024-01-07T02:09:30;102088.44;;;1.98;69.65
3654;BME280;70277;54.302;10.064;2024-01-07T02:12:03;102093.78;;;2.07;69.38
3654;BME280;70277;54.302;10.064;2024-01-07T02:14:31;102083.69;;;1.84;69.64
3654;BME280;70277;54.302;10.064;2024-01-07T02:16:57;102093.84;;;2.15;68.73
3654;BME280;70277;54.302;10.064;2024-01-07T02:19:24;102101.06;;;2.31;68.02
3654;BME280;70277;54.302;10.064;2024-01-07T02:21:51;102102.03;;;2.21;67.27
3654;BME280;70277;54.302;10.064;2024-01-07T02:24:18;102095.38;;;1.91;67.74
3654;BME280;70277;54.302;10.064;2024-01-07T02:26:45;102098.81;;;1.75;67.26
3654;BME280;70277;54.302;10.064;2024-01-07T02:29:11;102103.50;;;2.16;66.89
3654;BME280;70277;54.302;10.064;2024-01-07T02:31:38;102109.84;;;2.15;66.18
3654;BME280;70277;54.302;10.064;2024-01-07T02:34:04;102100.22;;;2.30;65.78
3654;BME280;70277;54.302;10.064;2024-01-07T02:36:31;102106.25;;;2.32;65.92
3654;BME280;70277;54.302;10.064;2024-01-07T02:38:58;102116.66;;;2.43;65.20
3654;BME280;70277;54.302;10.064;2024-01-07T02:41:24;102119.03;;;2.63;64.28
3654;BME280;70277;54.302;10.064;2024-01-07T02:43:53;102126.31;;;2.36;64.95
3654;BME280;70277;54.302;10.064;2024-01-07T02:46:20;102123.22;;;1.89;66.28
3654;BME280;70277;54.302;10.064;2024-01-07T02:48:46;102126.88;;;2.14;66.82
3654;BME280;70277;54.302;10.064;2024-01-07T02:51:13;102136.81;;;1.95;67.46
3654;BME280;70277;54.302;10.064;2024-01-07T02:53:39;102145.63;;;2.22;67.74
3654;BME280;70277;54.302;10.064;2024-01-07T02:56:06;102142.91;;;2.56;68.17
3654;BME280;70277;54.302;10.064;2024-01-07T02:58:35;102143.75;;;1.88;71.25
3654;BME280;70277;54.302;10.064;2024-01-07T03:01:01;102156.00;;;1.73;72.64
3654;BME280;70277;54.302;10.064;2024-01-07T03:03:28;102154.19;;;1.55;73.88
3654;BME280;70277;54.302;10.064;2024-01-07T03:05:54;102164.13;;;1.63;73.93
3654;BME280;70277;54.302;10.064;2024-01-07T03:08:21;102153.28;;;1.65;74.37
3654;BME280;70277;54.302;10.064;2024-01-07T03:10:48;102165.94;;;1.89;73.73
3654;BME280;70277;54.302;10.064;2024-01-07T03:13:14;102161.81;;;1.94;73.47
3654;BME280;70277;54.302;10.064;2024-01-07T03:15:41;102167.63;;;1.46;74.60
3654;BME280;70277;54.302;10.064;2024-01-07T03:18:07;102179.25;;;2.07;73.74
3654;BME280;70277;54.302;10.064;2024-01-07T03:20:34;102169.16;;;1.48;74.05
3654;BME280;70277;54.302;10.064;2024-01-07T03:23:01;102180.16;;;1.45;74.46
3654;BME280;70277;54.302;10.064;2024-01-07T03:25:28;102175.16;;;1.50;74.63
3654;BME280;70277;54.302;10.064;2024-01-07T03:27:54;102172.16;;;1.27;75.02
3654;BME280;70277;54.302;10.064;2024-01-07T03:30:21;102177.09;;;1.40;74.71
3654;BME280;70277;54.302;10.064;2024-01-07T03:32:47;102184.09;;;1.41;74.55
3654;BME280;70277;54.302;10.064;2024-01-07T03:35:14;102176.47;;;1.10;75.27
3654;BME280;70277;54.302;10.064;2024-01-07T03:37:41;102188.59;;;1.23;75.06
3654;BME280;70277;54.302;10.064;2024-01-07T03:40:11;102192.00;;;0.97;75.13
3654;BME280;70277;54.302;10.064;2024-01-07T03:42:40;102199.63;;;0.92;76.32
3654;BME280;70277;54.302;10.064;2024-01-07T03:45:07;102186.34;;;1.00;75.48
3654;BME280;70277;54.302;10.064;2024-01-07T03:47:33;102189.34;;;1.15;75.12
3654;BME280;70277;54.302;10.064;2024-01-07T03:50:00;102195.22;;;1.19;75.15
3654;BME280;70277;54.302;10.064;2024-01-07T03:52:27;102197.31;;;0.97;74.77
3654;BME280;70277;54.302;10.064;2024-01-07T03:54:55;102196.50;;;1.14;74.78
3654;BME280;70277;54.302;10.064;2024-01-07T03:57:21;102187.53;;;1.16;73.99
3654;BME280;70277;54.302;10.064;2024-01-07T03:59:48;102187.09;;;0.75;74.79
3654;BME280;70277;54.302;10.064;2024-01-07T04:02:14;102208.13;;;0.78;74.39
3654;BME280;70277;54.302;10.064;2024-01-07T04:04:42;102203.75;;;0.77;74.51
3654;BME280;70277;54.302;10.064;2024-01-07T04:07:09;102205.38;;;0.87;73.79
3654;BME280;70277;54.302;10.064;2024-01-07T04:09:36;102218.88;;;0.86;74.12
3654;BME280;70277;54.302;10.064;2024-01-07T04:12:03;102214.50;;;0.85;73.48
3654;BME280;70277;54.302;10.064;2024-01-07T04:14:30;102219.69;;;0.59;74.78
3654;BME280;70277;54.302;10.064;2024-01-07T04:17:00;102211.56;;;0.60;75.01
3654;BME280;70277;54.302;10.064;2024-01-07T04:19:26;102227.16;;;0.83;74.78
3654;BME280;70277;54.302;10.064;2024-01-07T04:21:53;102223.00;;;0.71;74.30
3654;BME280;70277;54.302;10.064;2024-01-07T04:24:19;102231.06;;;1.06;74.12
3654;BME280;70277;54.302;10.064;2024-01-07T04:26:46;102238.00;;;0.99;74.05
3654;BME280;70277;54.302;10.064;2024-01-07T04:29:13;102234.13;;;1.11;73.47
3654;BME280;70277;54.302;10.064;2024-01-07T04:31:39;102240.44;;;0.93;74.05
3654;BME280;70277;54.302;10.064;2024-01-07T04:34:06;102236.34;;;0.98;74.32
3654;BME280;70277;54.302;10.064;2024-01-07T04:36:33;102239.97;;;1.25;73.92
3654;BME280;70277;54.302;10.064;2024-01-07T04:38:59;102245.66;;;0.84;74.22
3654;BME280;70277;54.302;10.064;2024-01-07T04:41:26;102245.81;;;1.10;73.68
3654;BME280;70277;54.302;10.064;2024-01-07T04:43:52;102233.81;;;1.42;73.60
3654;BME280;70277;54.302;10.064;2024-01-07T04:46:19;102244.91;;;1.20;73.38
3654;BME280;70277;54.302;10.064;2024-01-07T04:48:45;102246.16;;;1.43;72.75
3654;BME280;70277;54.302;10.064;2024-01-07T04:51:12;102257.56;;;1.53;72.82
3654;BME280;70277;54.302;10.064;2024-01-07T04:53:39;102245.00;;;1.28;72.58
3654;BME280;70277;54.302;10.064;2024-01-07T04:56:05;102247.22;;;1.05;73.76
3654;BME280;70277;54.302;10.064;2024-01-07T04:58:32;102250.84;;;1.13;74.06
3654;BME280;70277;54.302;10.064;2024-01-07T05:00:59;102259.41;;;1.53;72.69
3654;BME280;70277;54.302;10.064;2024-01-07T05:03:25;102250.34;;;1.46;72.79
3654;BME280;70277;54.302;10.064;2024-01-07T05:05:52;102269.22;;;1.34;72.81
3654;BME280;70277;54.302;10.064;2024-01-07T05:08:19;102268.25;;;1.53;72.67
3654;BME280;70277;54.302;10.064;2024-01-07T05:10:50;102270.06;;;1.35;72.76
3654;BME280;70277;54.302;10.064;2024-01-07T05:13:16;102269.16;;;0.99;73.77
3654;BME280;70277;54.302;10.064;2024-01-07T05:15:43;102273.63;;;1.26;73.03
3654;BME280;70277;54.302;10.064;2024-01-07T05:18:09;102280.19;;;1.31;72.94
3654;BME280;70277;54.302;10.064;2024-01-07T05:20:36;102281.88;;;1.32;72.95
3654;BME280;70277;54.302;10.064;2024-01-07T05:23:03;102280.19;;;1.31;72.42
3654;BME280;70277;54.302;10.064;2024-01-07T05:25:30;102284.06;;;0.91;73.50
3654;BME280;70277;54.302;10.064;2024-01-07T05:27:57;102291.13;;;0.83;73.93
3654;BME280;70277;54.302;10.064;2024-01-07T05:30:23;102296.25;;;0.94;74.29
3654;BME280;70277;54.302;10.064;2024-01-07T05:32:50;102292.44;;;0.97;73.80
3654;BME280;70277;54.302;10.064;2024-01-07T05:35:17;102289.94;;;0.95;74.01
3654;BME280;70277;54.302;10.064;2024-01-07T05:37:43;102297.84;;;0.87;73.73
3654;BME280;70277;54.302;10.064;2024-01-07T05:40:10;102300.44;;;0.69;74.19
3654;BME280;70277;54.302;10.064;2024-01-07T05:42:37;102293.91;;;1.19;73.04
3654;BME280;70277;54.302;10.064;2024-01-07T05:45:03;102295.41;;;0.66;74.18
3654;BME280;70277;54.302;10.064;2024-01-07T05:47:30;102295.94;;;0.70;73.94
3654;BME280;70277;54.302;10.064;2024-01-07T05:49:57;102299.59;;;0.68;73.84
3654;BME280;70277;54.302;10.064;2024-01-07T05:52:23;102310.88;;;0.43;74.32
3654;BME280;70277;54.302;10.064;2024-01-07T05:54:50;102309.38;;;0.78;74.06
3654;BME280;70277;54.302;10.064;2024-01-07T05:57:17;102318.13;;;0.60;74.80
3654;BME280;70277;54.302;10.064;2024-01-07T05:59:44;102311.88;;;0.42;74.57
3654;BME280;70277;54.302;10.064;2024-01-07T06:02:11;102332.44;;;0.59;74.86
3654;BME280;70277;54.302;10.064;2024-01-07T06:04:38;102329.72;;;0.12;75.38
3654;BME280;70277;54.302;10.064;2024-01-07T06:07:06;102326.59;;;0.36;75.22
3654;BME280;70277;54.302;10.064;2024-01-07T06:09:32;102327.59;;;0.26;75.39
3654;BME280;70277;54.302;10.064;2024-01-07T06:11:59;102327.50;;;0.64;74.35
3654;BME280;70277;54.302;10.064;2024-01-07T06:14:25;102320.34;;;0.65;73.87
3654;BME280;70277;54.302;10.064;2024-01-07T06:16:52;102332.25;;;0.71;73.96
3654;BME280;70277;54.302;10.064;2024-01-07T06:19:19;102337.94;;;0.38;74.50
3654;BME280;70277;54.302;10.064;2024-01-07T06:21:46;102335.44;;;0.08;75.44
3654;BME280;70277;54.302;10.064;2024-01-07T06:24:12;102348.03;;;0.06;75.33
3654;BME280;70277;54.302;10.064;2024-01-07T06:26:39;102337.84;;;0.01;75.55
3654;BME280;70277;54.302;10.064;2024-01-07T06:29:07;102352.13;;;0.00;75.38
3654;BME280;70277;54.302;10.064;2024-01-07T06:31:33;102351.97;;;0.31;74.14
3654;BME280;70277;54.302;10.064;2024-01-07T06:34:00;102360.19;;;0.47;73.99
3654;BME280;70277;54.302;10.064;2024-01-07T06:36:27;102358.44;;;0.18;74.34
3654;BME280;70277;54.302;10.064;2024-01-07T06:38:54;102364.44;;;0.40;73.65
3654;BME280;70277;54.302;10.064;2024-01-07T06:41:20;102376.94;;;0.30;73.45
3654;BME280;70277;54.302;10.064;2024-01-07T06:43:47;102371.31;;;0.13;74.41
3654;BME280;70277;54.302;10.064;2024-01-07T06:46:16;102376.22;;;0.18;73.79
3654;BME280;70277;54.302;10.064;2024-01-07T06:48:42;102382.94;;;0.32;74.43
3654;BME280;70277;54.302;10.064;2024-01-07T06:51:14;102382.53;;;0.07;73.80
3654;BME280;70277;54.302;10.064;2024-01-07T06:53:41;102384.91;;;0.01;73.85
3654;BME280;70277;54.302;10.064;2024-01-07T06:56:08;102381.81;;;0.05;74.31
3654;BME280;70277;54.302;10.064;2024-01-07T06:58:34;102385.75;;;0.01;74.49
3654;BME280;70277;54.302;10.064;2024-01-07T07:01:01;102391.34;;;0.08;74.23
3654;BME280;70277;54.302;10.064;2024-01-07T07:03:28;102392.75;;;-0.08;74.32
3654;BME280;70277;54.302;10.064;2024-01-07T07:05:54;102391.34;;;-0.02;73.90
3654;BME280;70277;54.302;10.064;2024-01-07T07:08:21;102402.50;;;-0.28;74.44
3654;BME280;70277;54.302;10.064;2024-01-07T07:10:47;102396.06;;;-0.25;74.82
3654;BME280;70277;54.302;10.064;2024-01-07T07:13:14;102399.19;;;-0.01;73.48
3654;BME280;70277;54.302;10.064;2024-01-07T07:15:41;102413.19;;;0.11;72.56
3654;BME280;70277;54.302;10.064;2024-01-07T07:18:07;102401.69;;;-0.18;73.27
3654;BME280;70277;54.302;10.064;2024-01-07T07:20:34;102417.69;;;0.11;72.25
3654;BME280;70277;54.302;10.064;2024-01-07T07:23:01;102411.13;;;0.25;71.93
3654;BME280;70277;54.302;10.064;2024-01-07T07:25:27;102417.69;;;0.01;72.38
3654;BME280;70277;54.302;10.064;2024-01-07T07:27:54;102406.03;;;-0.17;72.37
3654;BME280;70277;54.302;10.064;2024-01-07T07:30:22;102426.50;;;0.02;71.76
3654;BME280;70277;54.302;10.064;2024-01-07T07:32:49;102434.66;;;0.19;71.20
3654;BME280;70277;54.302;10.064;2024-01-07T07:35:15;102425.50;;;-0.07;71.31
3654;BME280;70277;54.302;10.064;2024-01-07T07:37:42;102434.59;;;-0.19;71.22
3654;BME280;70277;54.302;10.064;2024-01-07T07:40:09;102439.69;;;0.03;70.77
3654;BME280;70277;54.302;10.064;2024-01-07T07:42:38;102445.34;;;-0.31;71.17
3654;BME280;70277;54.302;10.064;2024-01-07T07:45:05;102457.06;;;0.07;71.04
3654;BME280;70277;54.302;10.064;2024-01-07T07:47:31;102454.97;;;0.20;70.20
3654;BME280;70277;54.302;10.064;2024-01-07T07:49:58;102452.13;;;-0.07;70.61
3654;BME280;70277;54.302;10.064;2024-01-07T07:52:25;102457.72;;;-0.01;70.30
3654;BME280;70277;54.302;10.064;2024-01-07T07:54:52;102460.81;;;-0.05;69.64
3654;BME280;70277;54.302;10.064;2024-01-07T07:57:19;102457.81;;;-0.21;70.39
3654;BME280;70277;54.302;10.064;2024-01-07T07:59:50;102463.78;;;0.11;69.42
3654;BME280;70277;54.302;10.064;2024-01-07T08:02:17;102463.94;;;0.19;68.89
3654;BME280;70277;54.302;10.064;2024-01-07T08:04:44;102471.91;;;0.19;69.04
3654;BME280;70277;54.302;10.064;2024-01-07T08:07:10;102478.28;;;-0.12;69.52
3654;BME280;70277;54.302;10.064;2024-01-07T08:09:37;102483.84;;;0.15;69.21
3654;BME280;70277;54.302;10.064;2024-01-07T08:12:05;102497.38;;;0.03;69.38
3654;BME280;70277;54.302;10.064;2024-01-07T08:14:32;102494.59;;;0.04;69.25
3654;BME280;70277;54.302;10.064;2024-01-07T08:16:59;102487.75;;;0.11;68.78
3654;BME280;70277;54.302;10.064;2024-01-07T08:19:25;102489.16;;;0.15;68.81
3654;BME280;70277;54.302;10.064;2024-01-07T08:21:52;102491.94;;;0.14;68.57
3654;BME280;70277;54.302;10.064;2024-01-07T08:24:19;102502.28;;;-0.03;68.73
3654;BME280;70277;54.302;10.064;2024-01-07T08:26:45;102500.22;;;0.20;68.36
3654;BME280;70277;54.302;10.064;2024-01-07T08:29:12;102507.25;;;0.41;68.08
3654;BME280;70277;54.302;10.064;2024-01-07T08:31:39;102500.03;;;-0.07;68.29
3654;BME280;70277;54.302;10.064;2024-01-07T08:34:06;102503.97;;;0.08;68.39
3654;BME280;70277;54.302;10.064;2024-01-07T08:36:33;102513.41;;;0.12;68.60
3654;BME280;70277;54.302;10.064;2024-01-07T08:38:59;102510.91;;;0.50;67.35
3654;BME280;70277;54.302;10.064;2024-01-07T08:41:26;102523.53;;;0.77;67.11
3654;BME280;70277;54.302;10.064;2024-01-07T08:43:53;102526.22;;;0.57;67.02
3654;BME280;70277;54.302;10.064;2024-01-07T08:46:22;102527.28;;;0.26;67.16
3654;BME280;70277;54.302;10.064;2024-01-07T08:48:49;102521.06;;;-0.04;68.08
3654;BME280;70277;54.302;10.064;2024-01-07T08:51:15;102533.81;;;0.12;67.99
3654;BME280;70277;54.302;10.064;2024-01-07T08:53:42;102533.59;;;0.25;68.26
3654;BME280;70277;54.302;10.064;2024-01-07T08:56:09;102537.31;;;0.03;68.36
3654;BME280;70277;54.302;10.064;2024-01-07T08:58:35;102542.78;;;0.01;68.16
3654;BME280;70277;54.302;10.064;2024-01-07T09:01:03;102541.16;;;0.19;67.71
3654;BME280;70277;54.302;10.064;2024-01-07T09:03:30;102545.00;;;0.65;67.09
3654;BME280;70277;54.302;10.064;2024-01-07T09:05:56;102540.94;;;0.61;66.64
3654;BME280;70277;54.302;10.064;2024-01-07T09:08:23;102541.47;;;1.13;65.59
3654;BME280;70277;54.302;10.064;2024-01-07T09:10:50;102545.53;;;1.27;64.96
3654;BME280;70277;54.302;10.064;2024-01-07T09:13:17;102553.56;;;1.65;63.89
3654;BME280;70277;54.302;10.064;2024-01-07T09:15:43;102552.19;;;1.51;64.40
3654;BME280;70277;54.302;10.064;2024-01-07T09:18:10;102559.06;;;1.53;64.46
3654;BME280;70277;54.302;10.064;2024-01-07T09:20:37;102556.31;;;1.82;63.88
3654;BME280;70277;54.302;10.064;2024-01-07T09:23:03;102557.72;;;1.77;63.54
3654;BME280;70277;54.302;10.064;2024-01-07T09:25:30;102558.84;;;1.84;62.75
3654;BME280;70277;54.302;10.064;2024-01-07T09:27:56;102551.44;;;2.05;62.37
3654;BME280;70277;54.302;10.064;2024-01-07T09:30:23;102560.00;;;2.37;61.38
3654;BME280;70277;54.302;10.064;2024-01-07T09:32:50;102558.47;;;2.34;60.03
3654;BME280;70277;54.302;10.064;2024-01-07T09:35:16;102554.56;;;2.46;60.11
3654;BME280;70277;54.302;10.064;2024-01-07T09:37:43;102558.72;;;2.94;59.18
3654;BME280;70277;54.302;10.064;2024-01-07T09:40:10;102562.53;;;2.74;59.22
3654;BME280;70277;54.302;10.064;2024-01-07T09:42:37;102566.41;;;2.97;59.39
3654;BME280;70277;54.302;10.064;2024-01-07T09:45:04;102568.88;;;2.73;59.49
3654;BME280;70277;54.302;10.064;2024-01-07T09:47:31;102563.06;;;2.14;59.12
3654;BME280;70277;54.302;10.064;2024-01-07T09:49:58;102575.03;;;1.73;57.97
3654;BME280;70277;54.302;10.064;2024-01-07T09:52:25;102572.09;;;0.90;57.29
3654;BME280;70277;54.302;10.064;2024-01-07T09:54:58;102583.47;;;0.92;57.15
3654;BME280;70277;54.302;10.064;2024-01-07T09:57:26;102574.72;;;1.09;57.04
3654;BME280;70277;54.302;10.064;2024-01-07T09:59:53;102588.44;;;1.53;55.93
3654;BME280;70277;54.302;10.064;2024-01-07T10:02:20;102579.00;;;1.59;55.07
3654;BME280;70277;54.302;10.064;2024-01-07T10:04:47;102579.97;;;1.68;55.13
3654;BME280;70277;54.302;10.064;2024-01-07T10:07:15;102580.84;;;1.58;56.00
3654;BME280;70277;54.302;10.064;2024-01-07T10:09:43;102584.00;;;1.25;56.90
3654;BME280;70277;54.302;10.064;2024-01-07T10:12:10;102579.53;;;0.96;57.13
3654;BME280;70277;54.302;10.064;2024-01-07T10:14:38;102571.94;;;1.01;58.80
3654;BME280;70277;54.302;10.064;2024-01-07T10:17:14;102574.47;;;1.22;57.88
3654;BME280;70277;54.302;10.064;2024-01-07T10:19:44;102577.81;;;1.34;58.86
3654;BME280;70277;54.302;10.064;2024-01-07T10:22:14;102583.59;;;2.14;57.27
3654;BME280;70277;54.302;10.064;2024-01-07T10:24:42;102580.69;;;2.53;57.38
3654;BME280;70277;54.302;10.064;2024-01-07T10:27:12;102576.25;;;3.15;56.60
3654;BME280;70277;54.302;10.064;2024-01-07T10:29:39;102579.22;;;2.13;58.62
3654;BME280;70277;54.302;10.064;2024-01-07T10:32:06;102578.19;;;2.23;59.95
3654;BME280;70277;54.302;10.064;2024-01-07T10:34:36;102592.44;;;2.14;60.19
3654;BME280;70277;54.302;10.064;2024-01-07T10:37:04;102582.91;;;2.57;58.73
3654;BME280;70277;54.302;10.064;2024-01-07T10:39:32;102583.38;;;2.53;59.25
3654;BME280;70277;54.302;10.064;2024-01-07T10:41:59;102591.38;;;2.53;58.96
3654;BME280;70277;54.302;10.064;2024-01-07T10:44:29;102591.94;;;2.92;57.95
3654;BME280;70277;54.302;10.064;2024-01-07T10:46:57;102576.84;;;2.37;57.56
3654;BME280;70277;54.302;10.064;2024-01-07T10:49:25;102588.94;;;2.14;59.54
3654;BME280;70277;54.302;10.064;2024-01-07T10:52:06;102590.09;;;2.57;58.08
3654;BME280;70277;54.302;10.064;2024-01-07T10:54:35;102591.84;;;2.66;58.12
3654;BME280;70277;54.302;10.064;2024-01-07T10:57:13;102600.59;;;2.13;58.09
3654;BME280;70277;54.302;10.064;2024-01-07T10:59:41;102595.22;;;2.22;57.65
3654;BME280;70277;54.302;10.064;2024-01-07T11:02:08;102594.69;;;1.81;58.05
3654;BME280;70277;54.302;10.064;2024-01-07T11:05:06;102602.34;;;1.94;58.04
3654;BME280;70277;54.302;10.064;2024-01-07T11:10:48;102608.38;;;3.15;56.54
3654;BME280;70277;54.302;10.064;2024-01-07T11:13:35;102597.50;;;3.34;55.44
3654;BME280;70277;54.302;10.064;2024-01-07T11:16:02;102589.69;;;3.67;54.42
3654;BME280;70277;54.302;10.064;2024-01-07T11:18:31;102603.28;;;3.74;53.54
3654;BME280;70277;54.302;10.064;2024-01-07T11:21:01;102588.75;;;4.69;53.36
3654;BME280;70277;54.302;10.064;2024-01-07T11:23:32;102589.09;;;4.66;51.18
3654;BME280;70277;54.302;10.064;2024-01-07T11:26:06;102578.47;;;4.40;51.99
3654;BME280;70277;54.302;10.064;2024-01-07T11:31:20;102607.00;;;5.97;48.77
3654;BME280;70277;54.302;10.064;2024-01-07T11:33:49;102605.16;;;6.99;47.50
3654;BME280;70277;54.302;10.064;2024-01-07T11:36:17;102598.44;;;6.95;47.10
3654;BME280;70277;54.302;10.064;2024-01-07T11:38:49;102603.34;;;6.37;48.48
3654;BME280;70277;54.302;10.064;2024-01-07T11:41:20;102590.44;;;5.68;48.54
3654;BME280;70277;54.302;10.064;2024-01-07T11:43:57;102594.31;;;4.92;50.20
3654;BME280;70277;54.302;10.064;2024-01-07T11:46:31;102581.59;;;4.86;51.16
3654;BME280;70277;54.302;10.064;2024-01-07T11:48:58;102592.47;;;4.76;53.79
3654;BME280;70277;54.302;10.064;2024-01-07T11:51:29;102600.53;;;5.50;51.19
3654;BME280;70277;54.302;10.064;2024-01-07T11:54:01;102589.31;;;4.97;50.04
3654;BME280;70277;54.302;10.064;2024-01-07T11:56:28;102598.44;;;3.77;51.23
3654;BME280;70277;54.302;10.064;2024-01-07T11:58:55;102603.47;;;3.80;52.17
3654;BME280;70277;54.302;10.064;2024-01-07T12:01:24;102608.72;;;4.24;50.93
3654;BME280;70277;54.302;10.064;2024-01-07T12:03:54;102592.69;;;4.32;51.39
3654;BME280;70277;54.302;10.064;2024-01-07T12:06:21;102598.19;;;4.98;50.62
3654;BME280;70277;54.302;10.064;2024-01-07T12:08:48;102602.38;;;5.50;48.23
3654;BME280;70277;54.302;10.064;2024-01-07T12:11:15;102612.59;;;4.81;50.32
3654;BME280;70277;54.302;10.064;2024-01-07T12:13:42;102604.25;;;5.00;50.04
3654;BME280;70277;54.302;10.064;2024-01-07T12:16:10;102606.44;;;5.21;49.39
3654;BME280;70277;54.302;10.064;2024-01-07T12:18:40;102624.91;;;6.21;48.46
3654;BME280;70277;54.302;10.064;2024-01-07T12:21:07;102608.91;;;5.14;48.93
3654;BME280;70277;54.302;10.064;2024-01-07T12:23:35;102604.56;;;5.54;49.45
3654;BME280;70277;54.302;10.064;2024-01-07T12:26:10;102611.19;;;6.07;48.24
3654;BME280;70277;54.302;10.064;2024-01-07T12:28:37;102607.69;;;5.82;47.30
3654;BME280;70277;54.302;10.064;2024-01-07T12:31:04;102604.22;;;5.41;47.91
3654;BME280;70277;54.302;10.064;2024-01-07T12:33:32;102612.28;;;5.00;49.60
3654;BME280;70277;54.302;10.064;2024-01-07T12:36:01;102606.56;;;5.11;50.62
3654;BME280;70277;54.302;10.064;2024-01-07T12:38:28;102611.47;;;5.16;50.68
3654;BME280;70277;54.302;10.064;2024-01-07T12:40:54;102611.94;;;5.68;49.50
3654;BME280;70277;54.302;10.064;2024-01-07T12:43:22;102610.25;;;4.27;51.83
3654;BME280;70277;54.302;10.064;2024-01-07T12:45:49;102612.50;;;2.91;55.86
3654;BME280;70277;54.302;10.064;2024-01-07T12:48:16;102619.31;;;2.40;56.78
3654;BME280;70277;54.302;10.064;2024-01-07T12:50:42;102621.16;;;1.55;58.06
3654;BME280;70277;54.302;10.064;2024-01-07T12:53:09;102620.94;;;1.86;57.85
3654;BME280;70277;54.302;10.064;2024-01-07T12:55:36;102615.25;;;1.62;58.21
3654;BME280;70277;54.302;10.064;2024-01-07T12:58:02;102609.91;;;1.62;59.05
3654;BME280;70277;54.302;10.064;2024-01-07T13:00:29;102605.75;;;1.20;59.56
3654;BME280;70277;54.302;10.064;2024-01-07T13:02:56;102618.09;;;1.11;60.03
3654;BME280;70277;54.302;10.064;2024-01-07T13:05:26;102607.88;;;1.17;60.65
3654;BME280;70277;54.302;10.064;2024-01-07T13:07:53;102608.81;;;1.35;60.49